Airport Name : Camp Pendleton MCAS

Other Name : Camp Pendleton

ICAO : KNFG

IATA :

FAA : NFG

Latitude : 33.30125

Longitude : -117.355147

Country : United States

Local Date and Time : 1/17/2019 6:51:00 AM

 

TAF (Terminal Aerodrome Forecast)

TAF AMD KNFG 1712/1809 VRB05KT 9999 BKN006 OVC019 QNH3013INS TEMPO 1712/1716 -RA BKN019 OVC030 BECMG 1717/1719 19007KT 4800 RA BR BKN012 OVC025 QNH3015INS FM180130 VRB05KT 9999 FEW010 BKN025 QNH3018INS AUTOMATED SENSOR METWATCH 1709 TIL 1715 T13/1712Z T16/1721Z AMD 1200

 

METAR (METeorological Aerodrome Report)

KNFG 171355Z AUTO 00000KT 10SM OVC015 14/14 A3015 RMK AO2 RAE16 SLP208 P0001 T01390139

KNFG 171255Z AUTO 00000KT 10SM -RA OVC015 14/14 A3015 RMK AO2 RAB20E29B36 SLP210 P0001 T01390139

KNFG 171232Z AUTO 00000KT 10SM BKN016 BKN027 OVC038 14/14 A3015 RMK AO2 RAB20E29 P0000 T01390139

KNFG 171155Z AUTO 00000KT 8SM OVC014 14/14 A3016 RMK AO2 RAB1059E15 SLP211 P0002 60007 7//// T01390139 10144 20139 58009

KNFG 171146Z AUTO 00000KT 10SM BKN014 OVC024 14/14 A3016 RMK AO2 RAB1059E15 P0001 T01390139

KNFG 171116Z AUTO 00000KT 10SM OVC015 14/14 A3017 RMK AO2 RAB1059E15 P0001 T01390139

KNFG 171055Z AUTO 00000KT 10SM OVC014 14/14 A3017 RMK AO2 RAB14E16 SLP214 P0001 T01390139